sensor_id;sensor_type;location;lat;lon;timestamp;P1;durP1;ratioP1;P2;durP2;ratioP2
25299;SDS011;13241;51.208;4.432;2022-12-18T00:01:31;31.07;;;9.40;;
25299;SDS011;13241;51.208;4.432;2022-12-18T00:04:01;29.30;;;12.20;;
25299;SDS011;13241;51.208;4.432;2022-12-18T00:06:32;20.65;;;9.10;;
25299;SDS011;13241;51.208;4.432;2022-12-18T00:08:59;24.92;;;10.50;;
25299;SDS011;13241;51.208;4.432;2022-12-18T00:11:28;21.40;;;9.55;;
25299;SDS011;13241;51.208;4.432;2022-12-18T00:13:56;21.02;;;9.50;;
25299;SDS011;13241;51.208;4.432;2022-12-18T00:16:24;16.20;;;9.35;;
25299;SDS011;13241;51.208;4.432;2022-12-18T00:18:53;30.75;;;9.45;;
25299;SDS011;13241;51.208;4.432;2022-12-18T00:21:22;18.83;;;8.88;;
25299;SDS011;13241;51.208;4.432;2022-12-18T00:23:49;28.50;;;11.52;;
25299;SDS011;13241;51.208;4.432;2022-12-18T00:26:20;21.67;;;8.43;;
25299;SDS011;13241;51.208;4.432;2022-12-18T00:28:54;16.83;;;8.18;;
25299;SDS011;13241;51.208;4.432;2022-12-18T00:31:23;14.95;;;9.50;;
25299;SDS011;13241;51.208;4.432;2022-12-18T00:33:53;22.05;;;9.65;;
25299;SDS011;13241;51.208;4.432;2022-12-18T00:36:23;19.90;;;8.02;;
25299;SDS011;13241;51.208;4.432;2022-12-18T00:38:53;28.38;;;12.18;;
25299;SDS011;13241;51.208;4.432;2022-12-18T00:41:20;24.85;;;9.57;;
25299;SDS011;13241;51.208;4.432;2022-12-18T00:44:15;18.52;;;9.90;;
25299;SDS011;13241;51.208;4.432;2022-12-18T00:46:44;16.70;;;9.32;;
25299;SDS011;13241;51.208;4.432;2022-12-18T00:49:12;24.40;;;9.80;;
25299;SDS011;13241;51.208;4.432;2022-12-18T00:51:39;17.48;;;8.75;;
25299;SDS011;13241;51.208;4.432;2022-12-18T00:54:06;29.23;;;9.63;;
25299;SDS011;13241;51.208;4.432;2022-12-18T00:56:37;15.85;;;9.52;;
25299;SDS011;13241;51.208;4.432;2022-12-18T00:59:16;27.98;;;10.90;;
25299;SDS011;13241;51.208;4.432;2022-12-18T01:01:44;33.95;;;11.40;;
25299;SDS011;13241;51.208;4.432;2022-12-18T01:04:11;32.33;;;8.88;;
25299;SDS011;13241;51.208;4.432;2022-12-18T01:06:38;28.50;;;9.80;;
25299;SDS011;13241;51.208;4.432;2022-12-18T01:09:05;23.70;;;7.80;;
25299;SDS011;13241;51.208;4.432;2022-12-18T01:11:35;26.98;;;9.45;;
25299;SDS011;13241;51.208;4.432;2022-12-18T01:14:03;17.38;;;8.32;;
25299;SDS011;13241;51.208;4.432;2022-12-18T01:16:30;23.40;;;9.85;;
25299;SDS011;13241;51.208;4.432;2022-12-18T01:18:57;23.05;;;9.10;;
25299;SDS011;13241;51.208;4.432;2022-12-18T01:21:26;12.02;;;7.47;;
25299;SDS011;13241;51.208;4.432;2022-12-18T01:23:53;32.83;;;10.02;;
25299;SDS011;13241;51.208;4.432;2022-12-18T01:26:23;16.50;;;7.55;;
25299;SDS011;13241;51.208;4.432;2022-12-18T01:28:51;24.67;;;9.60;;
25299;SDS011;13241;51.208;4.432;2022-12-18T01:31:25;26.15;;;10.82;;
25299;SDS011;13241;51.208;4.432;2022-12-18T01:33:54;25.05;;;9.93;;
25299;SDS011;13241;51.208;4.432;2022-12-18T01:36:26;16.52;;;8.10;;
25299;SDS011;13241;51.208;4.432;2022-12-18T01:38:54;15.25;;;9.15;;
25299;SDS011;13241;51.208;4.432;2022-12-18T01:41:23;27.33;;;9.00;;
25299;SDS011;13241;51.208;4.432;2022-12-18T01:43:53;21.10;;;9.65;;
25299;SDS011;13241;51.208;4.432;2022-12-18T01:46:21;24.23;;;9.70;;
25299;SDS011;13241;51.208;4.432;2022-12-18T01:48:59;23.17;;;9.90;;
25299;SDS011;13241;51.208;4.432;2022-12-18T01:51:27;14.50;;;8.23;;
25299;SDS011;13241;51.208;4.432;2022-12-18T01:53:56;19.90;;;8.73;;
25299;SDS011;13241;51.208;4.432;2022-12-18T01:56:25;21.70;;;9.52;;
25299;SDS011;13241;51.208;4.432;2022-12-18T01:59:26;19.05;;;9.18;;
25299;SDS011;13241;51.208;4.432;2022-12-18T02:01:46;13.93;;;7.50;;
25299;SDS011;13241;51.208;4.432;2022-12-18T02:04:25;13.27;;;6.38;;
25299;SDS011;13241;51.208;4.432;2022-12-18T02:09:37;19.17;;;8.50;;
25299;SDS011;13241;51.208;4.432;2022-12-18T02:14:55;13.50;;;7.30;;
25299;SDS011;13241;51.208;4.432;2022-12-18T02:17:58;8.97;;;5.00;;
25299;SDS011;13241;51.208;4.432;2022-12-18T02:20:43;17.50;;;8.13;;
25299;SDS011;13241;51.208;4.432;2022-12-18T02:29:03;21.38;;;8.60;;
25299;SDS011;13241;51.208;4.432;2022-12-18T02:31:39;12.88;;;7.28;;
25299;SDS011;13241;51.208;4.432;2022-12-18T02:34:18;16.00;;;7.65;;
25299;SDS011;13241;51.208;4.432;2022-12-18T02:36:48;10.70;;;6.68;;
25299;SDS011;13241;51.208;4.432;2022-12-18T02:39:18;13.13;;;7.43;;
25299;SDS011;13241;51.208;4.432;2022-12-18T02:41:57;16.15;;;6.13;;
25299;SDS011;13241;51.208;4.432;2022-12-18T02:44:25;16.42;;;7.40;;
25299;SDS011;13241;51.208;4.432;2022-12-18T02:46:53;16.33;;;7.72;;
25299;SDS011;13241;51.208;4.432;2022-12-18T02:52:20;9.73;;;7.05;;
25299;SDS011;13241;51.208;4.432;2022-12-18T02:57:53;12.90;;;5.78;;
25299;SDS011;13241;51.208;4.432;2022-12-18T03:03:40;8.27;;;6.20;;
25299;SDS011;13241;51.208;4.432;2022-12-18T03:06:14;14.77;;;6.57;;
25299;SDS011;13241;51.208;4.432;2022-12-18T03:08:51;7.75;;;5.78;;
25299;SDS011;13241;51.208;4.432;2022-12-18T03:11:25;18.85;;;7.22;;
25299;SDS011;13241;51.208;4.432;2022-12-18T03:14:15;14.90;;;5.43;;
25299;SDS011;13241;51.208;4.432;2022-12-18T03:16:48;10.05;;;6.20;;
25299;SDS011;13241;51.208;4.432;2022-12-18T03:19:20;16.00;;;7.35;;
25299;SDS011;13241;51.208;4.432;2022-12-18T03:21:52;15.75;;;7.72;;
25299;SDS011;13241;51.208;4.432;2022-12-18T03:24:24;13.93;;;7.88;;
25299;SDS011;13241;51.208;4.432;2022-12-18T03:26:57;9.50;;;6.85;;
25299;SDS011;13241;51.208;4.432;2022-12-18T03:29:28;13.70;;;6.45;;
25299;SDS011;13241;51.208;4.432;2022-12-18T03:32:02;31.73;;;7.03;;
25299;SDS011;13241;51.208;4.432;2022-12-18T03:34:34;21.77;;;8.63;;
25299;SDS011;13241;51.208;4.432;2022-12-18T03:37:05;11.35;;;5.53;;
25299;SDS011;13241;51.208;4.432;2022-12-18T03:39:35;6.35;;;5.30;;
25299;SDS011;13241;51.208;4.432;2022-12-18T03:50:15;7.88;;;4.75;;
25299;SDS011;13241;51.208;4.432;2022-12-18T03:56:00;12.15;;;4.43;;
25299;SDS011;13241;51.208;4.432;2022-12-18T03:58:35;8.00;;;5.30;;
25299;SDS011;13241;51.208;4.432;2022-12-18T04:01:20;13.55;;;5.72;;
25299;SDS011;13241;51.208;4.432;2022-12-18T04:03:51;17.35;;;8.35;;
25299;SDS011;13241;51.208;4.432;2022-12-18T04:06:20;9.93;;;4.90;;
25299;SDS011;13241;51.208;4.432;2022-12-18T04:08:47;27.70;;;7.15;;
25299;SDS011;13241;51.208;4.432;2022-12-18T04:11:19;10.90;;;4.78;;
25299;SDS011;13241;51.208;4.432;2022-12-18T04:13:46;11.68;;;6.20;;
25299;SDS011;13241;51.208;4.432;2022-12-18T04:16:20;13.75;;;6.85;;
25299;SDS011;13241;51.208;4.432;2022-12-18T04:18:50;11.85;;;5.95;;
25299;SDS011;13241;51.208;4.432;2022-12-18T04:21:19;9.80;;;5.53;;
25299;SDS011;13241;51.208;4.432;2022-12-18T04:23:48;12.18;;;5.93;;
25299;SDS011;13241;51.208;4.432;2022-12-18T04:26:17;17.88;;;6.00;;
25299;SDS011;13241;51.208;4.432;2022-12-18T04:29:09;8.65;;;4.28;;
25299;SDS011;13241;51.208;4.432;2022-12-18T04:31:37;14.02;;;6.28;;
25299;SDS011;13241;51.208;4.432;2022-12-18T04:34:04;13.88;;;5.80;;
25299;SDS011;13241;51.208;4.432;2022-12-18T04:36:37;6.72;;;3.33;;
25299;SDS011;13241;51.208;4.432;2022-12-18T04:39:03;9.43;;;5.40;;
25299;SDS011;13241;51.208;4.432;2022-12-18T04:41:31;11.13;;;5.25;;
25299;SDS011;13241;51.208;4.432;2022-12-18T04:43:58;12.43;;;5.65;;
25299;SDS011;13241;51.208;4.432;2022-12-18T04:46:24;11.27;;;5.80;;
25299;SDS011;13241;51.208;4.432;2022-12-18T04:48:51;11.60;;;5.80;;
25299;SDS011;13241;51.208;4.432;2022-12-18T04:51:18;8.18;;;4.75;;
25299;SDS011;13241;51.208;4.432;2022-12-18T04:53:51;12.80;;;5.70;;
25299;SDS011;13241;51.208;4.432;2022-12-18T04:56:18;8.10;;;5.82;;
25299;SDS011;13241;51.208;4.432;2022-12-18T04:58:45;12.50;;;4.70;;
25299;SDS011;13241;51.208;4.432;2022-12-18T05:01:13;9.00;;;4.97;;
25299;SDS011;13241;51.208;4.432;2022-12-18T05:03:41;7.47;;;5.07;;
25299;SDS011;13241;51.208;4.432;2022-12-18T05:06:09;12.98;;;5.20;;
25299;SDS011;13241;51.208;4.432;2022-12-18T05:08:37;8.88;;;5.82;;
25299;SDS011;13241;51.208;4.432;2022-12-18T05:11:08;9.18;;;4.90;;
25299;SDS011;13241;51.208;4.432;2022-12-18T05:16:05;8.95;;;4.53;;
25299;SDS011;13241;51.208;4.432;2022-12-18T05:18:32;7.57;;;3.97;;
25299;SDS011;13241;51.208;4.432;2022-12-18T05:20:59;9.73;;;5.10;;
25299;SDS011;13241;51.208;4.432;2022-12-18T05:23:26;4.53;;;3.97;;
25299;SDS011;13241;51.208;4.432;2022-12-18T05:25:58;9.45;;;6.55;;
25299;SDS011;13241;51.208;4.432;2022-12-18T05:28:27;7.97;;;4.25;;
25299;SDS011;13241;51.208;4.432;2022-12-18T05:30:57;8.05;;;5.63;;
25299;SDS011;13241;51.208;4.432;2022-12-18T05:33:27;13.43;;;5.90;;
25299;SDS011;13241;51.208;4.432;2022-12-18T05:35:58;16.65;;;5.07;;
25299;SDS011;13241;51.208;4.432;2022-12-18T05:38:27;8.07;;;4.63;;
25299;SDS011;13241;51.208;4.432;2022-12-18T05:40:56;10.60;;;3.97;;
25299;SDS011;13241;51.208;4.432;2022-12-18T05:43:24;13.25;;;5.60;;
25299;SDS011;13241;51.208;4.432;2022-12-18T05:45:51;8.50;;;4.38;;
25299;SDS011;13241;51.208;4.432;2022-12-18T05:48:19;9.95;;;5.47;;
25299;SDS011;13241;51.208;4.432;2022-12-18T05:50:47;7.63;;;3.85;;
25299;SDS011;13241;51.208;4.432;2022-12-18T05:53:15;9.73;;;3.58;;
25299;SDS011;13241;51.208;4.432;2022-12-18T05:55:44;9.70;;;4.75;;
25299;SDS011;13241;51.208;4.432;2022-12-18T05:58:12;13.00;;;5.43;;
25299;SDS011;13241;51.208;4.432;2022-12-18T06:00:40;7.68;;;4.28;;
25299;SDS011;13241;51.208;4.432;2022-12-18T06:03:10;8.35;;;4.63;;
25299;SDS011;13241;51.208;4.432;2022-12-18T06:05:39;6.82;;;4.10;;
25299;SDS011;13241;51.208;4.432;2022-12-18T06:10:39;10.38;;;4.93;;
25299;SDS011;13241;51.208;4.432;2022-12-18T06:13:06;8.10;;;4.95;;
25299;SDS011;13241;51.208;4.432;2022-12-18T06:15:36;10.57;;;5.93;;
25299;SDS011;13241;51.208;4.432;2022-12-18T06:18:04;8.00;;;4.70;;
25299;SDS011;13241;51.208;4.432;2022-12-18T06:20:31;13.27;;;4.38;;
25299;SDS011;13241;51.208;4.432;2022-12-18T06:22:59;7.00;;;5.30;;
25299;SDS011;13241;51.208;4.432;2022-12-18T06:25:27;13.32;;;4.25;;
25299;SDS011;13241;51.208;4.432;2022-12-18T06:28:00;8.50;;;4.05;;
25299;SDS011;13241;51.208;4.432;2022-12-18T06:30:31;8.85;;;4.18;;
25299;SDS011;13241;51.208;4.432;2022-12-18T06:32:57;9.70;;;5.05;;
25299;SDS011;13241;51.208;4.432;2022-12-18T06:35:24;7.60;;;4.07;;
25299;SDS011;13241;51.208;4.432;2022-12-18T06:37:51;7.45;;;5.45;;
25299;SDS011;13241;51.208;4.432;2022-12-18T06:40:18;8.57;;;4.13;;
25299;SDS011;13241;51.208;4.432;2022-12-18T06:42:45;14.13;;;5.00;;
25299;SDS011;13241;51.208;4.432;2022-12-18T06:45:11;6.57;;;3.53;;
25299;SDS011;13241;51.208;4.432;2022-12-18T06:47:41;9.38;;;4.97;;
25299;SDS011;13241;51.208;4.432;2022-12-18T06:50:08;18.08;;;6.50;;
25299;SDS011;13241;51.208;4.432;2022-12-18T06:52:35;3.38;;;2.97;;
25299;SDS011;13241;51.208;4.432;2022-12-18T06:55:03;6.05;;;3.80;;
25299;SDS011;13241;51.208;4.432;2022-12-18T06:57:30;4.82;;;3.38;;
25299;SDS011;13241;51.208;4.432;2022-12-18T06:59:57;5.80;;;4.25;;
25299;SDS011;13241;51.208;4.432;2022-12-18T07:02:24;11.10;;;4.78;;
25299;SDS011;13241;51.208;4.432;2022-12-18T07:04:51;11.25;;;4.70;;
25299;SDS011;13241;51.208;4.432;2022-12-18T07:07:17;4.95;;;4.28;;
25299;SDS011;13241;51.208;4.432;2022-12-18T07:09:44;7.55;;;4.07;;
25299;SDS011;13241;51.208;4.432;2022-12-18T07:12:11;11.90;;;4.78;;
25299;SDS011;13241;51.208;4.432;2022-12-18T07:14:38;3.70;;;3.35;;
25299;SDS011;13241;51.208;4.432;2022-12-18T07:17:04;4.25;;;3.30;;
25299;SDS011;13241;51.208;4.432;2022-12-18T07:19:32;7.38;;;3.42;;
25299;SDS011;13241;51.208;4.432;2022-12-18T07:21:59;5.82;;;4.28;;
25299;SDS011;13241;51.208;4.432;2022-12-18T07:24:26;8.77;;;5.07;;
25299;SDS011;13241;51.208;4.432;2022-12-18T07:26:54;10.07;;;5.82;;
25299;SDS011;13241;51.208;4.432;2022-12-18T07:29:20;5.15;;;3.05;;
25299;SDS011;13241;51.208;4.432;2022-12-18T07:31:47;6.15;;;4.60;;
25299;SDS011;13241;51.208;4.432;2022-12-18T07:34:14;14.65;;;5.70;;
25299;SDS011;13241;51.208;4.432;2022-12-18T07:36:41;5.68;;;3.58;;
25299;SDS011;13241;51.208;4.432;2022-12-18T07:39:08;7.95;;;3.45;;
25299;SDS011;13241;51.208;4.432;2022-12-18T07:41:34;17.48;;;5.28;;
25299;SDS011;13241;51.208;4.432;2022-12-18T07:44:09;4.95;;;3.92;;
25299;SDS011;13241;51.208;4.432;2022-12-18T07:46:36;8.75;;;4.57;;
25299;SDS011;13241;51.208;4.432;2022-12-18T07:49:04;4.18;;;3.78;;
25299;SDS011;13241;51.208;4.432;2022-12-18T07:51:30;8.30;;;4.15;;
25299;SDS011;13241;51.208;4.432;2022-12-18T07:53:57;4.85;;;3.50;;
25299;SDS011;13241;51.208;4.432;2022-12-18T07:56:24;7.22;;;4.45;;
25299;SDS011;13241;51.208;4.432;2022-12-18T07:58:53;7.88;;;4.40;;
25299;SDS011;13241;51.208;4.432;2022-12-18T08:01:20;9.57;;;4.57;;
25299;SDS011;13241;51.208;4.432;2022-12-18T08:03:48;12.07;;;4.40;;
25299;SDS011;13241;51.208;4.432;2022-12-18T08:06:17;7.20;;;4.97;;
25299;SDS011;13241;51.208;4.432;2022-12-18T08:08:47;13.27;;;4.90;;
25299;SDS011;13241;51.208;4.432;2022-12-18T08:11:15;3.60;;;3.28;;
25299;SDS011;13241;51.208;4.432;2022-12-18T08:13:41;10.27;;;4.72;;
25299;SDS011;13241;51.208;4.432;2022-12-18T08:16:08;12.73;;;5.10;;
25299;SDS011;13241;51.208;4.432;2022-12-18T08:18:36;7.00;;;3.58;;
25299;SDS011;13241;51.208;4.432;2022-12-18T08:21:14;5.57;;;4.13;;
25299;SDS011;13241;51.208;4.432;2022-12-18T08:23:43;6.47;;;4.07;;
25299;SDS011;13241;51.208;4.432;2022-12-18T08:26:11;8.85;;;4.53;;
25299;SDS011;13241;51.208;4.432;2022-12-18T08:28:39;7.72;;;3.53;;
25299;SDS011;13241;51.208;4.432;2022-12-18T08:31:06;5.95;;;3.75;;
25299;SDS011;13241;51.208;4.432;2022-12-18T08:33:35;7.20;;;3.83;;
25299;SDS011;13241;51.208;4.432;2022-12-18T08:36:04;6.10;;;3.95;;
25299;SDS011;13241;51.208;4.432;2022-12-18T08:38:32;9.77;;;4.18;;
25299;SDS011;13241;51.208;4.432;2022-12-18T08:40:59;7.30;;;3.90;;
25299;SDS011;13241;51.208;4.432;2022-12-18T08:43:26;7.10;;;3.97;;
25299;SDS011;13241;51.208;4.432;2022-12-18T08:46:15;6.72;;;4.32;;
25299;SDS011;13241;51.208;4.432;2022-12-18T08:48:43;8.05;;;5.25;;
25299;SDS011;13241;51.208;4.432;2022-12-18T08:51:10;5.10;;;3.08;;
25299;SDS011;13241;51.208;4.432;2022-12-18T08:53:37;14.05;;;5.43;;
25299;SDS011;13241;51.208;4.432;2022-12-18T08:56:05;7.30;;;5.15;;
25299;SDS011;13241;51.208;4.432;2022-12-18T08:58:32;6.13;;;3.92;;
25299;SDS011;13241;51.208;4.432;2022-12-18T09:01:06;5.85;;;3.63;;
25299;SDS011;13241;51.208;4.432;2022-12-18T09:03:38;8.05;;;4.85;;
25299;SDS011;13241;51.208;4.432;2022-12-18T09:06:06;9.13;;;4.13;;
25299;SDS011;13241;51.208;4.432;2022-12-18T09:08:33;14.65;;;4.65;;
25299;SDS011;13241;51.208;4.432;2022-12-18T09:10:59;7.45;;;4.05;;
25299;SDS011;13241;51.208;4.432;2022-12-18T09:13:26;9.45;;;5.50;;
25299;SDS011;13241;51.208;4.432;2022-12-18T09:15:53;5.03;;;3.22;;
25299;SDS011;13241;51.208;4.432;2022-12-18T09:18:22;4.00;;;2.58;;
25299;SDS011;13241;51.208;4.432;2022-12-18T09:20:50;3.28;;;3.00;;
25299;SDS011;13241;51.208;4.432;2022-12-18T09:23:18;5.75;;;4.32;;
25299;SDS011;13241;51.208;4.432;2022-12-18T09:25:46;6.93;;;3.15;;
25299;SDS011;13241;51.208;4.432;2022-12-18T09:28:13;34.15;;;4.78;;
25299;SDS011;13241;51.208;4.432;2022-12-18T09:30:42;8.25;;;3.63;;
25299;SDS011;13241;51.208;4.432;2022-12-18T09:33:11;5.80;;;3.97;;
25299;SDS011;13241;51.208;4.432;2022-12-18T09:35:40;8.40;;;3.78;;
25299;SDS011;13241;51.208;4.432;2022-12-18T09:38:09;7.28;;;4.03;;
25299;SDS011;13241;51.208;4.432;2022-12-18T09:40:41;11.55;;;4.15;;
25299;SDS011;13241;51.208;4.432;2022-12-18T09:43:20;6.07;;;3.88;;
25299;SDS011;13241;51.208;4.432;2022-12-18T09:45:58;10.35;;;4.90;;
25299;SDS011;13241;51.208;4.432;2022-12-18T09:48:31;12.73;;;4.47;;
25299;SDS011;13241;51.208;4.432;2022-12-18T09:51:22;7.65;;;3.97;;
25299;SDS011;13241;51.208;4.432;2022-12-18T09:54:06;8.35;;;5.53;;
25299;SDS011;13241;51.208;4.432;2022-12-18T09:56:40;11.00;;;4.03;;
25299;SDS011;13241;51.208;4.432;2022-12-18T09:59:18;9.55;;;4.45;;
25299;SDS011;13241;51.208;4.432;2022-12-18T10:01:49;3.88;;;3.55;;
25299;SDS011;13241;51.208;4.432;2022-12-18T10:04:17;16.77;;;4.97;;
25299;SDS011;13241;51.208;4.432;2022-12-18T10:09:55;5.28;;;3.03;;
25299;SDS011;13241;51.208;4.432;2022-12-18T10:12:16;6.07;;;4.05;;
25299;SDS011;13241;51.208;4.432;2022-12-18T10:20:13;7.85;;;3.67;;
25299;SDS011;13241;51.208;4.432;2022-12-18T10:26:06;4.70;;;2.75;;
25299;SDS011;13241;51.208;4.432;2022-12-18T10:28:37;4.15;;;2.75;;
25299;SDS011;13241;51.208;4.432;2022-12-18T10:31:18;8.30;;;3.72;;
25299;SDS011;13241;51.208;4.432;2022-12-18T10:33:49;8.75;;;4.10;;
25299;SDS011;13241;51.208;4.432;2022-12-18T10:36:16;10.02;;;5.13;;
25299;SDS011;13241;51.208;4.432;2022-12-18T10:38:43;4.25;;;3.03;;
25299;SDS011;13241;51.208;4.432;2022-12-18T10:44:10;3.58;;;3.05;;
25299;SDS011;13241;51.208;4.432;2022-12-18T10:46:38;5.22;;;2.85;;
25299;SDS011;13241;51.208;4.432;2022-12-18T10:49:07;4.07;;;3.60;;
25299;SDS011;13241;51.208;4.432;2022-12-18T10:51:45;8.70;;;4.55;;
25299;SDS011;13241;51.208;4.432;2022-12-18T10:54:16;5.55;;;3.80;;
25299;SDS011;13241;51.208;4.432;2022-12-18T10:56:47;4.38;;;3.15;;
25299;SDS011;13241;51.208;4.432;2022-12-18T10:59:15;11.40;;;3.70;;
25299;SDS011;13241;51.208;4.432;2022-12-18T11:09:31;7.35;;;3.55;;
25299;SDS011;13241;51.208;4.432;2022-12-18T11:12:03;9.95;;;4.05;;
25299;SDS011;13241;51.208;4.432;2022-12-18T11:14:51;7.32;;;4.15;;
25299;SDS011;13241;51.208;4.432;2022-12-18T11:19:54;7.68;;;4.07;;
25299;SDS011;13241;51.208;4.432;2022-12-18T11:22:27;6.78;;;3.38;;
25299;SDS011;13241;51.208;4.432;2022-12-18T11:25:02;6.10;;;3.50;;
25299;SDS011;13241;51.208;4.432;2022-12-18T11:27:54;4.63;;;3.58;;
25299;SDS011;13241;51.208;4.432;2022-12-18T11:30:33;3.83;;;3.47;;
25299;SDS011;13241;51.208;4.432;2022-12-18T11:33:04;7.28;;;4.10;;
25299;SDS011;13241;51.208;4.432;2022-12-18T11:35:49;13.20;;;5.60;;
25299;SDS011;13241;51.208;4.432;2022-12-18T11:38:38;6.13;;;4.20;;
25299;SDS011;13241;51.208;4.432;2022-12-18T11:44:15;6.22;;;3.53;;
25299;SDS011;13241;51.208;4.432;2022-12-18T11:47:00;5.40;;;3.25;;
25299;SDS011;13241;51.208;4.432;2022-12-18T11:49:34;6.43;;;3.83;;
25299;SDS011;13241;51.208;4.432;2022-12-18T11:52:08;11.48;;;4.05;;
25299;SDS011;13241;51.208;4.432;2022-12-18T11:54:42;8.77;;;5.15;;
25299;SDS011;13241;51.208;4.432;2022-12-18T11:59:49;11.30;;;5.97;;
25299;SDS011;13241;51.208;4.432;2022-12-18T12:10:31;11.55;;;5.28;;
25299;SDS011;13241;51.208;4.432;2022-12-18T12:13:16;8.95;;;4.30;;
25299;SDS011;13241;51.208;4.432;2022-12-18T12:15:55;4.50;;;3.65;;
25299;SDS011;13241;51.208;4.432;2022-12-18T12:21:33;8.18;;;3.72;;
25299;SDS011;13241;51.208;4.432;2022-12-18T12:27:10;12.73;;;5.30;;
25299;SDS011;13241;51.208;4.432;2022-12-18T12:30:07;6.28;;;4.22;;
25299;SDS011;13241;51.208;4.432;2022-12-18T12:32:53;11.32;;;5.68;;
25299;SDS011;13241;51.208;4.432;2022-12-18T12:38:59;18.23;;;7.38;;
25299;SDS011;13241;51.208;4.432;2022-12-18T12:44:25;11.82;;;5.25;;
25299;SDS011;13241;51.208;4.432;2022-12-18T12:46:58;5.93;;;3.83;;
25299;SDS011;13241;51.208;4.432;2022-12-18T12:49:28;9.80;;;5.40;;
25299;SDS011;13241;51.208;4.432;2022-12-18T12:52:07;7.15;;;3.35;;
25299;SDS011;13241;51.208;4.432;2022-12-18T12:54:52;10.68;;;5.20;;
25299;SDS011;13241;51.208;4.432;2022-12-18T12:57:24;10.90;;;5.15;;
25299;SDS011;13241;51.208;4.432;2022-12-18T13:00:11;8.98;;;4.93;;
25299;SDS011;13241;51.208;4.432;2022-12-18T13:02:44;6.47;;;3.78;;
25299;SDS011;13241;51.208;4.432;2022-12-18T13:05:30;10.38;;;5.38;;
25299;SDS011;13241;51.208;4.432;2022-12-18T13:10:33;11.80;;;6.50;;
25299;SDS011;13241;51.208;4.432;2022-12-18T13:13:10;7.90;;;3.97;;
25299;SDS011;13241;51.208;4.432;2022-12-18T13:16:03;10.02;;;5.28;;
25299;SDS011;13241;51.208;4.432;2022-12-18T13:18:32;10.73;;;6.13;;
25299;SDS011;13241;51.208;4.432;2022-12-18T13:23:36;7.15;;;5.20;;
25299;SDS011;13241;51.208;4.432;2022-12-18T13:36:53;8.40;;;5.28;;
25299;SDS011;13241;51.208;4.432;2022-12-18T13:39:25;4.78;;;3.45;;
25299;SDS011;13241;51.208;4.432;2022-12-18T13:44:32;8.35;;;4.72;;
25299;SDS011;13241;51.208;4.432;2022-12-18T13:50:03;8.32;;;4.25;;
25299;SDS011;13241;51.208;4.432;2022-12-18T13:52:37;4.85;;;4.28;;
25299;SDS011;13241;51.208;4.432;2022-12-18T13:55:06;7.32;;;4.38;;
25299;SDS011;13241;51.208;4.432;2022-12-18T13:57:41;6.65;;;4.43;;
25299;SDS011;13241;51.208;4.432;2022-12-18T14:00:28;10.35;;;4.80;;
25299;SDS011;13241;51.208;4.432;2022-12-18T14:02:56;15.15;;;6.50;;
25299;SDS011;13241;51.208;4.432;2022-12-18T14:05:34;17.77;;;8.45;;
25299;SDS011;13241;51.208;4.432;2022-12-18T14:08:07;13.13;;;7.00;;
25299;SDS011;13241;51.208;4.432;2022-12-18T14:10:41;20.20;;;6.53;;
25299;SDS011;13241;51.208;4.432;2022-12-18T14:13:21;9.30;;;6.28;;
25299;SDS011;13241;51.208;4.432;2022-12-18T14:15:53;6.93;;;4.43;;
25299;SDS011;13241;51.208;4.432;2022-12-18T14:21:19;12.13;;;5.78;;
25299;SDS011;13241;51.208;4.432;2022-12-18T14:24:12;12.80;;;5.07;;
25299;SDS011;13241;51.208;4.432;2022-12-18T14:26:47;13.02;;;5.72;;
25299;SDS011;13241;51.208;4.432;2022-12-18T14:32:07;17.55;;;9.35;;
25299;SDS011;13241;51.208;4.432;2022-12-18T14:34:48;10.80;;;6.97;;
25299;SDS011;13241;51.208;4.432;2022-12-18T14:37:21;11.55;;;5.78;;
25299;SDS011;13241;51.208;4.432;2022-12-18T14:39:59;7.10;;;5.20;;
25299;SDS011;13241;51.208;4.432;2022-12-18T14:42:35;9.50;;;4.97;;
25299;SDS011;13241;51.208;4.432;2022-12-18T14:48:07;8.32;;;5.13;;
25299;SDS011;13241;51.208;4.432;2022-12-18T14:50:43;7.85;;;4.72;;
25299;SDS011;13241;51.208;4.432;2022-12-18T14:53:23;7.30;;;4.90;;
25299;SDS011;13241;51.208;4.432;2022-12-18T14:58:57;7.93;;;4.95;;
25299;SDS011;13241;51.208;4.432;2022-12-18T15:04:04;6.47;;;4.88;;
25299;SDS011;13241;51.208;4.432;2022-12-18T15:06:50;7.78;;;5.63;;
25299;SDS011;13241;51.208;4.432;2022-12-18T15:17:59;12.02;;;5.47;;
25299;SDS011;13241;51.208;4.432;2022-12-18T15:20:27;11.98;;;6.30;;
25299;SDS011;13241;51.208;4.432;2022-12-18T15:22:57;14.05;;;5.60;;
25299;SDS011;13241;51.208;4.432;2022-12-18T15:25:42;12.68;;;6.00;;
25299;SDS011;13241;51.208;4.432;2022-12-18T15:28:18;10.07;;;5.65;;
25299;SDS011;13241;51.208;4.432;2022-12-18T15:30:59;15.50;;;7.40;;
25299;SDS011;13241;51.208;4.432;2022-12-18T15:33:38;15.70;;;7.65;;
25299;SDS011;13241;51.208;4.432;2022-12-18T15:36:11;12.07;;;5.47;;
25299;SDS011;13241;51.208;4.432;2022-12-18T15:38:39;7.97;;;7.05;;
25299;SDS011;13241;51.208;4.432;2022-12-18T15:41:19;11.18;;;5.32;;
25299;SDS011;13241;51.208;4.432;2022-12-18T15:43:50;10.20;;;5.47;;
25299;SDS011;13241;51.208;4.432;2022-12-18T15:46:19;16.20;;;7.32;;
25299;SDS011;13241;51.208;4.432;2022-12-18T15:48:51;10.85;;;7.35;;
25299;SDS011;13241;51.208;4.432;2022-12-18T15:51:34;13.25;;;6.18;;
25299;SDS011;13241;51.208;4.432;2022-12-18T15:54:03;10.10;;;6.05;;
25299;SDS011;13241;51.208;4.432;2022-12-18T15:56:32;11.32;;;7.10;;
25299;SDS011;13241;51.208;4.432;2022-12-18T15:59:19;11.35;;;4.60;;
25299;SDS011;13241;51.208;4.432;2022-12-18T16:01:47;17.13;;;6.47;;
25299;SDS011;13241;51.208;4.432;2022-12-18T16:04:15;12.63;;;6.95;;
25299;SDS011;13241;51.208;4.432;2022-12-18T16:06:43;10.45;;;5.50;;
25299;SDS011;13241;51.208;4.432;2022-12-18T16:09:30;5.97;;;4.32;;
25299;SDS011;13241;51.208;4.432;2022-12-18T16:11:58;19.40;;;7.82;;
25299;SDS011;13241;51.208;4.432;2022-12-18T16:14:26;12.27;;;5.70;;
25299;SDS011;13241;51.208;4.432;2022-12-18T16:16:57;11.45;;;6.95;;
25299;SDS011;13241;51.208;4.432;2022-12-18T16:19:26;8.73;;;6.43;;
25299;SDS011;13241;51.208;4.432;2022-12-18T16:21:54;17.48;;;8.00;;
25299;SDS011;13241;51.208;4.432;2022-12-18T16:24:25;9.23;;;6.50;;
25299;SDS011;13241;51.208;4.432;2022-12-18T16:26:55;13.57;;;8.50;;
25299;SDS011;13241;51.208;4.432;2022-12-18T16:29:24;12.57;;;6.65;;
25299;SDS011;13241;51.208;4.432;2022-12-18T16:31:54;8.05;;;6.07;;
25299;SDS011;13241;51.208;4.432;2022-12-18T16:34:22;18.45;;;8.25;;
25299;SDS011;13241;51.208;4.432;2022-12-18T16:37:00;13.40;;;7.22;;
25299;SDS011;13241;51.208;4.432;2022-12-18T16:39:32;14.15;;;7.18;;
25299;SDS011;13241;51.208;4.432;2022-12-18T16:42:04;16.02;;;6.00;;
25299;SDS011;13241;51.208;4.432;2022-12-18T16:44:34;10.45;;;6.13;;
25299;SDS011;13241;51.208;4.432;2022-12-18T16:47:02;14.30;;;7.28;;
25299;SDS011;13241;51.208;4.432;2022-12-18T16:49:30;11.52;;;6.40;;
25299;SDS011;13241;51.208;4.432;2022-12-18T16:51:57;12.32;;;5.90;;
25299;SDS011;13241;51.208;4.432;2022-12-18T16:54:24;16.48;;;7.47;;
25299;SDS011;13241;51.208;4.432;2022-12-18T16:56:50;12.27;;;6.55;;
25299;SDS011;13241;51.208;4.432;2022-12-18T16:59:18;12.15;;;6.15;;
25299;SDS011;13241;51.208;4.432;2022-12-18T17:01:45;14.57;;;7.28;;
25299;SDS011;13241;51.208;4.432;2022-12-18T17:04:13;11.35;;;6.75;;
25299;SDS011;13241;51.208;4.432;2022-12-18T17:06:41;17.42;;;6.88;;
25299;SDS011;13241;51.208;4.432;2022-12-18T17:09:12;14.05;;;6.55;;
25299;SDS011;13241;51.208;4.432;2022-12-18T17:11:41;12.50;;;7.82;;
25299;SDS011;13241;51.208;4.432;2022-12-18T17:14:11;11.60;;;6.43;;
25299;SDS011;13241;51.208;4.432;2022-12-18T17:16:40;11.38;;;6.25;;
25299;SDS011;13241;51.208;4.432;2022-12-18T17:19:08;17.90;;;7.47;;